Daglege Rapportar

Klikk her for oppdatering!


Detaljar i dag

24/7/17
Time         Wind Dir   Wind Spd  Wind Gust   Humidity       Temp  Raw Barom   Tot Rain Temp Out H Temp Out L  DailyRain   HourRain
                            mps        mps          %         C         mb         mm         C         C         mm         mm
0:00                0          0          0         48       20.1    1050.04    1255.00       20.1       20.1       0.00       0.00

 


Detaljar i gr

23/7/17
Time         Wind Dir   Wind Spd  Wind Gust   Humidity       Temp  Raw Barom   Tot Rain Temp Out H Temp Out L  DailyRain   HourRain
                            mps        mps          %         C         mb         mm         C         C         mm         mm
0:00                0          0          0         43       23.3    1050.04    1255.00       23.3       23.3       0.00       0.00
1:00                0          0          0         43       23.3    1050.04    1255.00       23.3       23.3       0.00       0.00
2:00                0          0          0         43       23.3    1050.04    1255.00       23.3       23.3       0.00       0.00
3:00                0          0          0         43       23.3    1050.04    1255.00       23.3       23.3       0.00       0.00
4:00                0          0          0         43       23.3    1050.04    1255.00       23.3       23.3       0.00       0.00
5:00                0          0          0         43       23.3    1050.04    1255.00       23.3       23.3       0.00       0.00
6:00                0          0          0         43       23.3    1050.04    1255.00       23.3       23.3       0.00       0.00
7:00                0          0          0         43       23.3    1050.04    1255.00       23.3       23.3       0.00       0.00
8:00                0          0          0         43       23.3    1050.04    1255.00       23.3       23.3       0.00       0.00
9:00                0          0          0         43       23.3    1050.04    1255.00       23.3       23.3       0.00       0.00
10:00               0          0          0         43       23.3    1050.04    1255.00       23.3       23.3       0.00       0.00
11:00               0          0          0         43       23.3    1050.04    1255.00       23.3       23.3       0.00       0.00
12:00               0          0          0         43       23.3    1050.04    1255.00       23.3       23.3       0.00       0.00
13:00               0          0          0         43       23.3    1050.04    1255.00       23.3       23.3       0.00       0.00
14:00               0          0          0         43       23.3    1050.04    1255.00       23.3       23.3       0.00       0.00
15:00               0          0          0         44       24.8    1050.04    1255.00       24.8       23.3       0.00       0.00
16:00               0          0          0         39       25.7    1050.04    1255.00       26.4       23.3       0.00       0.00
17:00               0          0          0         39       26.5    1050.04    1255.00       26.5       23.3       0.00       0.00
18:00               0          0          0         36       26.8    1050.04    1255.00       26.8       23.3       0.00       0.00
19:00               0          0          0         45       25.1    1050.04    1255.00       26.8       23.3       0.00       0.00
20:00               0          0          0         54       22.2    1050.04    1255.00       26.8       22.2       0.00       0.00
21:00               0          0          0         57       19.8    1050.04    1255.00       26.8       19.8       0.00       0.00
22:00               0          0          0         62       19.9    1050.04    1255.00       26.8       19.7       0.00       0.00
23:00               0          0          0         55       19.9    1050.04    1255.00       26.8       19.6       0.00       0.00